createdAt,value
2022-11-29T00:00:54.893Z,100474.13
2022-11-29T00:02:26.836Z,100466.44
2022-11-29T00:03:58.801Z,100474.13
2022-11-29T00:05:31.421Z,100466.44
2022-11-29T00:07:03.351Z,100472.34
2022-11-29T00:08:35.576Z,100469.78
2022-11-29T00:10:07.923Z,100465.53
2022-11-29T00:11:58.631Z,100469.00
2022-11-29T00:13:30.506Z,100472.31
2022-11-29T00:15:04.901Z,100475.72
2022-11-29T00:16:36.795Z,100478.28
2022-11-29T00:18:08.938Z,100469.75
2022-11-29T00:21:18.046Z,100473.94
2022-11-29T00:22:49.855Z,100464.50
2022-11-29T00:24:21.749Z,100471.38
2022-11-29T00:25:53.567Z,100468.81
2022-11-29T00:27:25.388Z,100470.59
2022-11-29T00:28:57.231Z,100468.84
2022-11-29T00:30:29.249Z,100465.38
2022-11-29T00:32:01.254Z,100465.31
2022-11-29T00:33:33.175Z,100469.53
2022-11-29T00:35:09.468Z,100463.59
2022-11-29T00:36:41.797Z,100466.16
2022-11-29T00:38:13.712Z,100471.31
2022-11-29T00:39:45.551Z,100466.19
2022-11-29T00:41:17.394Z,100471.28
2022-11-29T00:42:49.281Z,100467.03
2022-11-29T00:44:21.317Z,100474.78
2022-11-29T00:45:53.200Z,100480.78
2022-11-29T00:47:25.083Z,100483.38
2022-11-29T00:48:59.872Z,100476.56
2022-11-29T00:50:31.758Z,100478.28
2022-11-29T00:52:03.744Z,100482.59
2022-11-29T00:53:35.842Z,100480.91
2022-11-29T00:55:08.109Z,100479.22
2022-11-29T00:56:39.995Z,100478.38
2022-11-29T00:58:12.044Z,100478.38
2022-11-29T00:59:43.999Z,100476.66
2022-11-29T01:01:16.075Z,100480.03
2022-11-29T01:02:48.295Z,100474.91
2022-11-29T01:04:20.260Z,100475.78
2022-11-29T01:05:52.419Z,100478.28
2022-11-29T01:07:24.240Z,100476.63
2022-11-29T01:08:56.163Z,100478.28
2022-11-29T01:10:28.171Z,100475.72
2022-11-29T01:12:00.042Z,100474.84
2022-11-29T01:13:32.047Z,100476.50
2022-11-29T01:15:07.469Z,100470.53
2022-11-29T01:16:39.467Z,100466.25
2022-11-29T01:18:11.705Z,100470.53
2022-11-29T01:19:50.595Z,100470.56
2022-11-29T01:21:23.629Z,100477.41
2022-11-29T01:22:55.524Z,100477.44
2022-11-29T01:26:01.356Z,100473.22
2022-11-29T01:27:33.567Z,100469.00
2022-11-29T01:29:05.436Z,100471.53
2022-11-29T01:30:37.703Z,100468.91
2022-11-29T01:32:09.613Z,100475.72
2022-11-29T01:33:41.539Z,100469.75
2022-11-29T01:35:13.335Z,100477.31
2022-11-29T01:36:45.138Z,100473.88
2022-11-29T01:38:17.226Z,100467.81
2022-11-29T01:39:49.185Z,100465.22
2022-11-29T01:41:22.434Z,100464.38
2022-11-29T01:42:54.360Z,100473.78
2022-11-29T01:44:46.816Z,100469.50
2022-11-29T01:46:18.863Z,100469.50
2022-11-29T01:47:51.471Z,100472.06
2022-11-29T01:49:30.028Z,100482.31
2022-11-29T01:51:01.925Z,100480.66
2022-11-29T01:52:33.773Z,100473.81
2022-11-29T01:54:05.649Z,100471.22
2022-11-29T01:55:38.144Z,100472.97
2022-11-29T01:57:10.259Z,100469.50
2022-11-29T01:58:43.292Z,100462.59
2022-11-29T02:00:19.899Z,100465.16
2022-11-29T02:01:51.761Z,100456.66
2022-11-29T02:03:23.615Z,100460.91
2022-11-29T02:04:55.499Z,100461.81
2022-11-29T02:06:27.841Z,100459.25
2022-11-29T02:07:59.782Z,100457.50
2022-11-29T02:09:31.714Z,100457.47
2022-11-29T02:11:07.164Z,100454.91
2022-11-29T02:12:48.563Z,100456.63
2022-11-29T02:14:20.553Z,100460.03
2022-11-29T02:16:00.741Z,100459.19
2022-11-29T02:17:36.054Z,100461.81
2022-11-29T02:19:16.771Z,100465.22
2022-11-29T02:20:48.588Z,100466.09
2022-11-29T02:22:31.416Z,100464.34
2022-11-29T02:24:03.228Z,100465.16
2022-11-29T02:25:40.939Z,100474.56
2022-11-29T02:27:26.316Z,100474.56
2022-11-29T02:29:09.378Z,100475.41
2022-11-29T02:30:59.907Z,100483.94
2022-11-29T02:32:50.578Z,100471.97
2022-11-29T02:34:40.833Z,100471.09
2022-11-29T02:36:19.805Z,100473.69
2022-11-29T02:38:00.805Z,100469.41
2022-11-29T02:39:44.898Z,100460.84
2022-11-29T02:41:22.941Z,100469.41
2022-11-29T02:43:07.044Z,100475.38
2022-11-29T02:44:46.323Z,100465.97
2022-11-29T02:46:36.975Z,100468.53
2022-11-29T02:48:17.995Z,100467.66
2022-11-29T02:49:49.781Z,100459.97
2022-11-29T02:51:21.552Z,100456.50
2022-11-29T02:52:53.513Z,100463.34
2022-11-29T02:54:31.141Z,100465.06
2022-11-29T02:56:15.248Z,100452.22
2022-11-29T02:57:59.390Z,100453.91
2022-11-29T02:59:31.271Z,100459.84
2022-11-29T03:01:11.346Z,100457.25
2022-11-29T03:02:46.336Z,100450.38
2022-11-29T03:04:18.215Z,100457.25
2022-11-29T03:05:51.826Z,100452.97
2022-11-29T03:07:35.843Z,100458.97
2022-11-29T03:09:28.352Z,100455.59
2022-11-29T03:11:20.643Z,100450.50
2022-11-29T03:12:52.846Z,100453.13
2022-11-29T03:14:25.595Z,100453.13
2022-11-29T03:16:20.498Z,100457.38
2022-11-29T03:18:11.028Z,100461.63
2022-11-29T03:19:42.832Z,100467.63
2022-11-29T03:21:37.203Z,100467.63
2022-11-29T03:23:24.461Z,100470.13
2022-11-29T03:25:02.608Z,100470.91
2022-11-29T03:26:54.194Z,100472.56
2022-11-29T03:30:06.348Z,100469.13
2022-11-29T03:31:48.086Z,100470.84
2022-11-29T03:33:23.095Z,100469.09
2022-11-29T03:35:01.121Z,100469.13
2022-11-29T03:36:41.598Z,100469.97
2022-11-29T03:38:17.437Z,100467.34
2022-11-29T03:39:53.681Z,100469.88
2022-11-29T03:41:44.578Z,100478.47
2022-11-29T03:43:17.617Z,100468.22
2022-11-29T03:44:53.363Z,100465.63
2022-11-29T03:46:27.898Z,100467.38
2022-11-29T03:48:05.842Z,100472.47
2022-11-29T03:49:37.671Z,100472.47
2022-11-29T03:51:20.169Z,100474.16
2022-11-29T03:52:55.507Z,100470.72
2022-11-29T03:54:47.372Z,100473.25
2022-11-29T03:56:32.691Z,100478.41
2022-11-29T03:58:13.861Z,100478.47
2022-11-29T03:59:48.272Z,100479.25
2022-11-29T04:01:22.701Z,100479.25
2022-11-29T04:04:36.593Z,100482.66
2022-11-29T04:06:08.413Z,100486.09
2022-11-29T04:07:44.929Z,100480.16
2022-11-29T04:09:36.028Z,100483.56
2022-11-29T04:11:24.594Z,100487.84
2022-11-29T04:13:14.219Z,100490.44
2022-11-29T04:14:58.213Z,100482.72
2022-11-29T04:16:48.448Z,100491.25
2022-11-29T04:18:38.942Z,100486.13
2022-11-29T04:20:29.473Z,100492.97
2022-11-29T04:22:17.571Z,100493.81
2022-11-29T04:23:49.463Z,100495.56
2022-11-29T04:25:36.205Z,100492.16
2022-11-29T04:27:43.490Z,100488.72
2022-11-29T04:29:27.477Z,100497.28
2022-11-29T04:31:05.853Z,100495.50
2022-11-29T04:32:50.648Z,100493.78
2022-11-29T04:34:40.525Z,100491.13
2022-11-29T04:36:31.236Z,100499.59
2022-11-29T04:38:09.282Z,100498.75
2022-11-29T04:39:46.602Z,100485.09
2022-11-29T04:41:20.316Z,100489.34
2022-11-29T04:42:55.737Z,100485.94
2022-11-29T04:44:46.217Z,100489.41
2022-11-29T04:46:18.329Z,100491.06
2022-11-29T04:47:52.584Z,100497.88
2022-11-29T04:49:46.539Z,100495.25
2022-11-29T04:51:36.973Z,100494.38
2022-11-29T04:53:29.247Z,100495.97
2022-11-29T04:55:26.372Z,100487.41
2022-11-29T04:57:22.764Z,100494.25
2022-11-29T04:58:57.441Z,100500.25
2022-11-29T05:00:29.268Z,100499.41
2022-11-29T05:02:19.566Z,100493.47
2022-11-29T05:03:56.865Z,100502.06
2022-11-29T05:06:01.477Z,100500.34
2022-11-29T05:09:12.239Z,100506.13
2022-11-29T05:10:56.891Z,100508.75
2022-11-29T05:12:34.725Z,100507.91
2022-11-29T05:14:15.812Z,100507.94
2022-11-29T05:16:00.019Z,100501.13
2022-11-29T05:17:50.356Z,100506.28
2022-11-29T05:19:37.437Z,100508.00
2022-11-29T05:21:10.159Z,100510.56
2022-11-29T05:23:02.083Z,100510.56
2022-11-29T05:24:33.913Z,100509.75
2022-11-29T05:26:10.133Z,100509.75
2022-11-29T05:27:46.447Z,100512.31
2022-11-29T05:29:20.918Z,100511.44
2022-11-29T05:31:04.898Z,100511.50
2022-11-29T05:32:36.753Z,100516.50
2022-11-29T05:34:11.780Z,100525.94
2022-11-29T05:35:46.684Z,100518.25
2022-11-29T05:37:37.306Z,100525.13
2022-11-29T05:39:16.025Z,100520.84
2022-11-29T05:40:50.460Z,100519.13
2022-11-29T05:44:13.991Z,100508.88
2022-11-29T05:45:50.338Z,100520.03
2022-11-29T05:47:28.231Z,100521.66
2022-11-29T05:49:13.327Z,100520.81
2022-11-29T05:50:55.521Z,100521.66
2022-11-29T05:52:49.986Z,100521.66
2022-11-29T05:54:29.829Z,100524.19
2022-11-29T05:56:07.629Z,100509.66
2022-11-29T05:57:48.507Z,100512.22
2022-11-29T05:59:30.917Z,100515.69
2022-11-29T06:01:41.259Z,100519.09
2022-11-29T06:03:22.041Z,100525.03
2022-11-29T06:05:13.880Z,100524.19
2022-11-29T06:06:48.589Z,100520.81
2022-11-29T06:08:31.313Z,100525.06
2022-11-29T06:10:05.061Z,100521.63
2022-11-29T06:13:31.072Z,100521.66
2022-11-29T06:15:03.129Z,100525.94
2022-11-29T06:16:40.210Z,100526.81
2022-11-29T06:18:50.535Z,100521.69
2022-11-29T06:20:28.028Z,100516.66
2022-11-29T06:22:08.911Z,100519.13
2022-11-29T06:23:59.441Z,100518.31
2022-11-29T06:25:38.455Z,100526.94
2022-11-29T06:27:10.753Z,100520.91
2022-11-29T06:28:45.349Z,100522.66
2022-11-29T06:30:20.022Z,100523.53
2022-11-29T06:31:53.146Z,100526.09
2022-11-29T06:33:30.746Z,100525.28
2022-11-29T06:35:04.120Z,100533.81
2022-11-29T06:36:36.070Z,100518.47
2022-11-29T06:38:31.101Z,100531.28
2022-11-29T06:40:03.223Z,100525.28
2022-11-29T06:41:35.339Z,100523.56
2022-11-29T06:43:07.339Z,100525.28
2022-11-29T06:44:39.359Z,100523.56
2022-11-29T06:46:26.048Z,100526.16
2022-11-29T06:48:06.972Z,100524.50
2022-11-29T06:49:38.825Z,100526.25
2022-11-29T06:51:16.741Z,100528.81
2022-11-29T06:52:58.728Z,100521.97
2022-11-29T06:54:33.397Z,100527.91
2022-11-29T06:56:14.469Z,100520.22
2022-11-29T06:58:03.875Z,100528.78
2022-11-29T06:59:54.548Z,100525.41
2022-11-29T07:01:46.428Z,100526.25
2022-11-29T07:03:21.611Z,100529.63
2022-11-29T07:04:56.968Z,100533.03
2022-11-29T07:06:29.035Z,100532.19
2022-11-29T07:08:03.126Z,100533.09
2022-11-29T07:09:35.257Z,100537.41
2022-11-29T07:11:07.380Z,100543.41
2022-11-29T07:12:39.475Z,100534.03
2022-11-29T07:14:11.464Z,100532.31
2022-11-29T07:15:49.463Z,100536.59
2022-11-29T07:17:26.239Z,100535.72
2022-11-29T07:19:06.998Z,100534.88
2022-11-29T07:20:51.135Z,100533.97
2022-11-29T07:22:25.956Z,100532.31
2022-11-29T07:24:00.793Z,100538.31
2022-11-29T07:25:42.257Z,100537.34
2022-11-29T07:27:21.730Z,100538.22
2022-11-29T07:29:00.199Z,100544.19
2022-11-29T07:30:35.432Z,100543.28
2022-11-29T07:32:10.007Z,100541.59
2022-11-29T07:33:50.951Z,100542.47
2022-11-29T07:35:29.756Z,100546.84
2022-11-29T07:37:04.102Z,100541.78
2022-11-29T07:38:35.967Z,100538.38
2022-11-29T07:40:14.983Z,100541.78
2022-11-29T07:41:47.738Z,100539.25
2022-11-29T07:43:19.658Z,100537.56
2022-11-29T07:46:23.672Z,100539.31
2022-11-29T07:47:55.541Z,100544.34
2022-11-29T07:49:27.515Z,100539.31
2022-11-29T07:50:59.584Z,100542.72
2022-11-29T07:52:31.572Z,100545.25
2022-11-29T07:54:03.539Z,100541.78
2022-11-29T07:55:36.448Z,100537.50
2022-11-29T07:57:08.435Z,100537.50
2022-11-29T07:58:40.362Z,100535.81
2022-11-29T08:00:12.715Z,100534.09
2022-11-29T08:01:44.727Z,100541.75
2022-11-29T09:51:56.518Z,100483.91
2022-11-29T09:53:28.411Z,100487.28
2022-11-29T09:55:19.015Z,100487.38
2022-11-29T09:56:51.732Z,100481.44
2022-11-29T09:58:26.526Z,100480.47
2022-11-29T09:59:59.971Z,100480.47
2022-11-29T10:01:33.190Z,100477.97
2022-11-29T10:03:13.809Z,100478.97
2022-11-29T10:04:47.299Z,100483.31
2022-11-29T10:06:22.178Z,100477.41
2022-11-29T10:07:54.025Z,100480.91
2022-11-29T10:09:33.925Z,100480.03
2022-11-29T10:11:17.365Z,100476.63
2022-11-29T10:12:50.935Z,100477.47
2022-11-29T10:14:27.869Z,100472.34
2022-11-29T10:16:02.428Z,100469.78
2022-11-29T10:17:42.095Z,100468.03
2022-11-29T10:19:16.111Z,100471.19
2022-11-29T10:20:49.313Z,100471.28
2022-11-29T10:22:30.764Z,100466.19
2022-11-29T10:24:07.683Z,100478.22
2022-11-29T10:25:49.385Z,100471.50
2022-11-29T10:27:24.144Z,100474.13
2022-11-29T10:28:58.293Z,100475.00
2022-11-29T10:30:30.794Z,100472.44
2022-11-29T10:32:10.091Z,100472.47
2022-11-29T10:33:42.516Z,100469.94
2022-11-29T10:35:15.513Z,100469.06
2022-11-29T10:36:59.901Z,100478.47
2022-11-29T10:38:32.311Z,100468.25
2022-11-29T10:40:07.490Z,100469.13
2022-11-29T10:41:39.374Z,100463.16
2022-11-29T10:43:11.264Z,100464.03
2022-11-29T10:44:43.299Z,100462.31
2022-11-29T10:46:27.007Z,100459.78
2022-11-29T10:48:02.059Z,100459.75
2022-11-29T10:49:34.256Z,100461.38
2022-11-29T10:51:09.443Z,100461.34
2022-11-29T10:52:41.679Z,100457.94
2022-11-29T10:54:13.826Z,100458.81
2022-11-29T10:55:48.946Z,100455.44
2022-11-29T10:57:22.487Z,100460.63
2022-11-29T10:58:58.818Z,100449.50
2022-11-29T11:00:30.887Z,100458.88
2022-11-29T11:02:04.567Z,100456.25
2022-11-29T11:03:39.716Z,100456.03
2022-11-29T11:05:12.456Z,100457.47
2022-11-29T11:06:44.373Z,100456.72
2022-11-29T11:08:17.668Z,100452.53
2022-11-29T11:09:50.856Z,100459.38
2022-11-29T11:11:29.594Z,100455.97
2022-11-29T11:13:11.454Z,100453.44
2022-11-29T11:14:43.992Z,100449.09
2022-11-29T11:16:22.306Z,100454.91
2022-11-29T11:18:01.413Z,100446.38
2022-11-29T11:19:34.063Z,100451.59
2022-11-29T11:21:08.376Z,100457.66
2022-11-29T11:22:41.107Z,100456.03
2022-11-29T11:24:20.168Z,100449.19
2022-11-29T11:26:01.398Z,100448.31
2022-11-29T11:27:42.235Z,100444.09
2022-11-29T11:29:24.946Z,100443.28
2022-11-29T11:31:04.979Z,100450.03
2022-11-29T11:32:37.136Z,100444.09
2022-11-29T11:34:26.392Z,100448.41
2022-11-29T11:36:03.172Z,100448.44
2022-11-29T11:37:36.121Z,100447.56
2022-11-29T11:39:12.595Z,100442.47
2022-11-29T11:40:44.579Z,100438.25
2022-11-29T11:42:36.369Z,100438.25
2022-11-29T11:44:15.272Z,100441.72
2022-11-29T11:45:55.234Z,100434.91
2022-11-29T11:47:28.212Z,100433.97
2022-11-29T11:49:00.349Z,100433.88
2022-11-29T11:50:38.208Z,100438.19
2022-11-29T11:52:14.998Z,100444.06
2022-11-29T11:53:49.446Z,100437.16
2022-11-29T11:55:21.304Z,100431.16
2022-11-29T11:56:53.374Z,100436.22
2022-11-29T11:58:45.721Z,100428.56
2022-11-29T12:01:02.367Z,100429.28
2022-11-29T12:02:30.101Z,100428.47
2022-11-29T12:04:12.387Z,100431.94
2022-11-29T12:05:46.272Z,100434.56
2022-11-29T12:07:29.703Z,100432.81
2022-11-29T12:09:19.811Z,100439.63
2022-11-29T12:10:52.797Z,100429.38
2022-11-29T12:12:26.780Z,100436.16
2022-11-29T12:13:59.607Z,100437.09
2022-11-29T12:15:36.575Z,100432.84
2022-11-29T12:17:16.874Z,100439.72
2022-11-29T12:18:51.826Z,100441.25
2022-11-29T12:20:44.187Z,100435.19
2022-11-29T12:22:18.658Z,100442.75
2022-11-29T12:23:53.149Z,100440.88
2022-11-29T12:25:27.688Z,100442.59
2022-11-29T12:27:01.432Z,100438.28
2022-11-29T12:28:35.128Z,100445.00
2022-11-29T12:31:46.464Z,100443.94
2022-11-29T12:33:24.956Z,100443.16
2022-11-29T12:35:03.116Z,100444.91
2022-11-29T12:36:41.849Z,100444.94
2022-11-29T12:38:16.681Z,100447.47
2022-11-29T12:39:53.111Z,100443.28
2022-11-29T12:41:31.972Z,100444.28
2022-11-29T12:43:06.828Z,100444.41
2022-11-29T12:44:57.507Z,100436.78
2022-11-29T12:46:29.637Z,100437.63
2022-11-29T12:48:05.483Z,100435.97
2022-11-29T12:50:09.921Z,100442.78
2022-11-29T12:51:51.162Z,100441.69
2022-11-29T12:53:27.719Z,100452.03
2022-11-29T12:55:03.013Z,100445.22
2022-11-29T12:56:37.316Z,100446.06
2022-11-29T12:58:32.513Z,100444.25
2022-11-29T13:00:04.726Z,100437.53
2022-11-29T13:01:41.027Z,100434.13
2022-11-29T13:03:16.415Z,100439.13
2022-11-29T13:05:00.214Z,100433.22
2022-11-29T13:06:32.472Z,100434.97
2022-11-29T13:08:15.712Z,100442.50
2022-11-29T13:10:16.379Z,100436.56
2022-11-29T13:11:56.143Z,100447.72
2022-11-29T13:13:28.320Z,100454.66
2022-11-29T13:15:17.095Z,100442.59
2022-11-29T13:17:00.154Z,100446.78
2022-11-29T13:18:32.206Z,100452.78
2022-11-29T13:20:10.278Z,100451.06
2022-11-29T13:22:02.826Z,100444.25
2022-11-29T13:25:51.457Z,100453.50
2022-11-29T13:27:30.674Z,100447.53
2022-11-29T13:29:02.801Z,100449.09
2022-11-29T13:30:35.242Z,100443.84
2022-11-29T13:32:12.964Z,100447.31
2022-11-29T13:35:28.251Z,100449.97
2022-11-29T13:37:03.432Z,100450.03
2022-11-29T13:38:55.496Z,100450.81
2022-11-29T13:40:30.654Z,100454.19
2022-11-29T13:42:08.272Z,100451.72
2022-11-29T13:43:42.700Z,100450.06
2022-11-29T13:45:26.893Z,100455.28
2022-11-29T13:47:09.611Z,100453.69
2022-11-29T13:48:44.530Z,100457.19
2022-11-29T13:50:35.139Z,100457.16
2022-11-29T13:52:10.031Z,100447.75
2022-11-29T13:53:48.142Z,100453.50
2022-11-29T13:55:29.792Z,100453.50
2022-11-29T13:57:05.329Z,100458.69
2022-11-29T13:58:37.317Z,100452.72
2022-11-29T14:00:21.220Z,100455.28
2022-11-29T14:01:54.325Z,100453.63
2022-11-29T14:04:59.142Z,100454.50
2022-11-29T14:06:34.660Z,100454.59
2022-11-29T14:08:25.393Z,100458.84
2022-11-29T14:10:04.493Z,100458.84
2022-11-29T14:11:42.557Z,100451.16
2022-11-29T14:13:14.693Z,100463.97
2022-11-29T14:14:57.431Z,100464.03
2022-11-29T14:16:37.208Z,100466.66
2022-11-29T14:18:29.038Z,100463.28
2022-11-29T14:20:19.639Z,100463.25
2022-11-29T14:22:03.631Z,100459.84
2022-11-29T14:23:36.801Z,100465.03
2022-11-29T14:25:51.212Z,100470.13
2022-11-29T14:27:23.662Z,100474.41
2022-11-29T14:28:55.669Z,100470.97
2022-11-29T14:30:46.653Z,100469.22
2022-11-29T14:34:01.080Z,100468.13
2022-11-29T14:35:35.982Z,100470.53
2022-11-29T14:37:09.437Z,100474.00
2022-11-29T14:38:46.184Z,100474.00
2022-11-29T14:40:26.571Z,100472.34
2022-11-29T14:42:17.309Z,100481.78
2022-11-29T14:43:49.310Z,100472.34
2022-11-29T14:45:22.738Z,100486.06
2022-11-29T14:47:05.473Z,100479.19
2022-11-29T14:48:37.426Z,100478.38
2022-11-29T14:50:24.322Z,100474.09
2022-11-29T14:52:09.398Z,100474.91
2022-11-29T14:53:41.597Z,100468.09
2022-11-29T14:55:16.189Z,100467.22
2022-11-29T14:56:48.278Z,100467.22
2022-11-29T14:58:20.941Z,100468.97
2022-11-29T14:59:52.935Z,100469.84
2022-11-29T15:01:25.434Z,100470.78
2022-11-29T15:03:16.275Z,100470.78
2022-11-29T15:04:49.053Z,100462.97
2022-11-29T15:06:25.837Z,100471.56
2022-11-29T15:08:16.715Z,100461.28
2022-11-29T15:09:48.839Z,100462.09
2022-11-29T15:11:38.350Z,100457.75
2022-11-29T15:13:11.939Z,100460.31
2022-11-29T15:14:46.736Z,100460.31
2022-11-29T15:16:24.873Z,100472.31
2022-11-29T15:18:32.198Z,100466.31
2022-11-29T15:20:04.215Z,100471.44
2022-11-29T15:21:40.670Z,100476.56
2022-11-29T15:23:16.088Z,100468.84
2022-11-29T15:25:05.415Z,100473.13
2022-11-29T15:26:37.326Z,100472.16
2022-11-29T15:28:17.875Z,100479.00
2022-11-29T15:29:49.855Z,100484.00
2022-11-29T15:31:21.870Z,100480.59
2022-11-29T15:32:54.039Z,100488.28
2022-11-29T15:34:28.973Z,100481.44
2022-11-29T15:36:05.123Z,100487.44
2022-11-29T15:37:37.637Z,100490.78
2022-11-29T15:39:22.434Z,100497.59
2022-11-29T15:40:54.967Z,100496.75
2022-11-29T15:42:32.424Z,100500.16
2022-11-29T15:44:07.922Z,100494.19
2022-11-29T15:45:40.575Z,100496.78
2022-11-29T15:47:16.565Z,100497.66
2022-11-29T15:48:48.642Z,100498.53
2022-11-29T15:50:30.582Z,100499.41
2022-11-29T15:52:05.774Z,100504.63
2022-11-29T15:53:37.824Z,100497.81
2022-11-29T15:55:11.062Z,100504.66
2022-11-29T15:56:49.529Z,100505.56
2022-11-29T15:58:21.435Z,100497.88
2022-11-29T15:59:54.634Z,100512.41
2022-11-29T16:03:01.938Z,100513.31
2022-11-29T16:04:33.953Z,100513.25
2022-11-29T16:06:07.370Z,100513.25
2022-11-29T16:07:39.316Z,100513.25
2022-11-29T16:09:13.644Z,100517.56
2022-11-29T16:10:53.670Z,100519.25
2022-11-29T16:12:25.602Z,100515.03
2022-11-29T16:14:12.502Z,100515.03
2022-11-29T16:15:49.192Z,100513.28
2022-11-29T16:17:21.341Z,100512.38
2022-11-29T16:18:53.422Z,100508.13
2022-11-29T16:20:26.074Z,100507.28
2022-11-29T16:22:13.103Z,100508.13
2022-11-29T16:23:47.014Z,100505.53
2022-11-29T16:25:19.752Z,100513.19
2022-11-29T16:26:51.963Z,100514.06
2022-11-29T16:28:24.046Z,100511.53
2022-11-29T16:29:56.242Z,100517.50
2022-11-29T16:33:05.090Z,100514.13
2022-11-29T16:34:37.175Z,100507.28
2022-11-29T16:36:16.991Z,100509.81
2022-11-29T16:37:48.976Z,100512.41
2022-11-29T16:39:22.383Z,100512.47
2022-11-29T16:41:01.379Z,100504.72
2022-11-29T16:42:34.190Z,100505.59
2022-11-29T16:44:06.678Z,100503.88
2022-11-29T16:45:41.767Z,100509.84
2022-11-29T16:47:23.952Z,100506.31
2022-11-29T16:48:56.763Z,100510.56
2022-11-29T16:50:35.203Z,100510.56
2022-11-29T16:52:25.855Z,100510.47
2022-11-29T16:53:57.871Z,100507.91
2022-11-29T16:55:29.744Z,100510.47
2022-11-29T16:57:05.914Z,100513.03
2022-11-29T16:59:16.574Z,100513.03
2022-11-29T17:00:31.679Z,100513.88
2022-11-29T17:02:03.873Z,100515.59
2022-11-29T17:03:36.110Z,100514.72
2022-11-29T17:05:09.034Z,100515.56
2022-11-29T17:06:41.145Z,100505.34
2022-11-29T17:08:13.595Z,100507.06
2022-11-29T17:09:46.194Z,100519.88
2022-11-29T17:11:18.388Z,100507.91
2022-11-29T17:12:50.819Z,100514.75
2022-11-29T17:14:22.942Z,100514.75
2022-11-29T17:15:55.063Z,100516.47
2022-11-29T17:17:27.144Z,100518.19
2022-11-29T17:19:02.175Z,100523.31
2022-11-29T17:20:34.542Z,100519.06
2022-11-29T17:22:06.696Z,100519.88
2022-11-29T17:23:38.667Z,100522.44
2022-11-29T17:25:10.887Z,100521.59
2022-11-29T17:26:43.321Z,100519.88
2022-11-29T17:28:15.689Z,100512.16
2022-11-29T17:29:47.817Z,100513.03
2022-11-29T17:31:21.636Z,100517.34
2022-11-29T17:32:53.809Z,100509.66
2022-11-29T17:34:26.020Z,100513.06
2022-11-29T17:36:03.808Z,100506.22
2022-11-29T17:37:35.753Z,100514.78
2022-11-29T17:39:07.738Z,100508.00
2022-11-29T17:40:40.505Z,100514.00
2022-11-29T17:42:12.749Z,100513.13
2022-11-29T17:43:44.832Z,100521.69
2022-11-29T17:45:17.028Z,100514.91
2022-11-29T17:46:48.980Z,100519.19
2022-11-29T17:48:20.997Z,100513.19
2022-11-29T17:49:52.918Z,100518.34
2022-11-29T17:53:19.909Z,100527.75
2022-11-29T17:54:51.893Z,100525.16
2022-11-29T17:56:24.990Z,100524.25
2022-11-29T17:57:56.949Z,100526.81
2022-11-29T17:59:29.140Z,100524.25
2022-11-29T18:01:08.270Z,100528.56
2022-11-29T18:02:40.225Z,100525.97
2022-11-29T18:04:12.230Z,100529.38
2022-11-29T18:05:44.098Z,100530.25
2022-11-29T18:07:17.468Z,100530.19
2022-11-29T18:08:50.149Z,100528.50
2022-11-29T18:10:22.659Z,100529.38
2022-11-29T18:11:54.607Z,100535.41
2022-11-29T18:13:27.973Z,100532.84
2022-11-29T18:16:34.070Z,100531.06
2022-11-29T18:18:06.301Z,100535.28
2022-11-29T18:19:38.492Z,100539.53
2022-11-29T18:21:10.835Z,100538.66
2022-11-29T18:24:21.944Z,100536.88
2022-11-29T18:26:00.678Z,100538.63
2022-11-29T18:27:32.634Z,100536.91
2022-11-29T18:30:42.582Z,100538.63
2022-11-29T18:32:14.728Z,100540.31
2022-11-29T18:33:47.179Z,100535.19
2022-11-29T18:35:19.071Z,100535.13
2022-11-29T18:36:51.057Z,100536.88
2022-11-29T18:38:22.995Z,100541.13
2022-11-29T18:39:55.012Z,100539.44
2022-11-29T18:41:28.580Z,100541.09
2022-11-29T18:43:00.653Z,100541.09
2022-11-29T18:44:32.872Z,100547.13
2022-11-29T18:46:08.533Z,100544.50
2022-11-29T18:47:40.656Z,100541.91
2022-11-29T18:49:13.889Z,100535.94
2022-11-29T18:50:48.544Z,100535.94
2022-11-29T18:52:20.466Z,100536.78
2022-11-29T18:53:52.677Z,100533.38
2022-11-29T18:55:25.210Z,100528.16
2022-11-29T18:56:57.406Z,100534.19
2022-11-29T18:58:29.525Z,100529.94
2022-11-29T19:00:01.562Z,100533.34
2022-11-29T19:01:35.028Z,100533.34
2022-11-29T19:03:06.933Z,100527.34
2022-11-29T19:04:38.820Z,100540.97
2022-11-29T19:06:14.623Z,100536.75
2022-11-29T19:07:49.438Z,100537.50
2022-11-29T19:09:21.983Z,100535.72
2022-11-29T19:10:53.972Z,100530.59
2022-11-29T19:12:26.018Z,100535.72
2022-11-29T19:14:03.574Z,100533.16
2022-11-29T19:15:35.666Z,100523.75
2022-11-29T19:17:07.624Z,100532.28
2022-11-29T19:18:39.655Z,100533.16
2022-11-29T19:20:12.086Z,100533.13
2022-11-29T19:21:46.520Z,100534.81
2022-11-29T19:23:24.243Z,100531.38
2022-11-29T19:24:56.971Z,100536.53
2022-11-29T19:26:29.986Z,100539.94
2022-11-29T19:28:02.194Z,100544.16
2022-11-29T19:29:39.535Z,100538.16
2022-11-29T19:31:12.394Z,100547.50
2022-11-29T19:32:44.305Z,100541.53
2022-11-29T19:34:16.660Z,100540.72
2022-11-29T19:35:48.527Z,100537.31
2022-11-29T19:37:20.360Z,100544.13
2022-11-29T19:38:54.081Z,100545.84
2022-11-29T19:40:26.495Z,100545.84
2022-11-29T19:41:58.663Z,100543.28
2022-11-29T19:43:32.183Z,100553.53
2022-11-29T19:45:20.393Z,100550.06
2022-11-29T19:46:52.668Z,100548.34
2022-11-29T19:48:24.901Z,100549.22
2022-11-29T19:50:02.365Z,100545.84
2022-11-29T19:51:35.720Z,100549.22
2022-11-29T19:53:08.336Z,100551.78
2022-11-29T19:54:40.292Z,100552.63
2022-11-29T19:56:13.086Z,100559.41
2022-11-29T19:57:45.009Z,100554.28
2022-11-29T19:59:17.103Z,100559.41
2022-11-29T20:00:49.030Z,100559.41
2022-11-29T20:02:21.055Z,100557.75
2022-11-29T20:03:53.263Z,100558.56
2022-11-29T20:05:25.159Z,100558.63
2022-11-29T20:06:58.371Z,100559.50
2022-11-29T20:08:30.593Z,100550.97
2022-11-29T20:10:02.745Z,100550.06
2022-11-29T20:11:34.847Z,100550.84
2022-11-29T20:13:08.258Z,100549.94
2022-11-29T20:14:40.109Z,100549.94
2022-11-29T20:16:13.216Z,100557.63
2022-11-29T20:17:45.516Z,100555.06
2022-11-29T20:19:17.576Z,100551.59
2022-11-29T20:20:49.694Z,100553.28
2022-11-29T20:22:21.681Z,100557.56
2022-11-29T20:23:57.231Z,100552.41
2022-11-29T20:25:29.112Z,100553.16
2022-11-29T20:27:01.214Z,100542.03
2022-11-29T20:28:34.265Z,100540.31
2022-11-29T20:30:07.419Z,100549.66
2022-11-29T20:31:44.346Z,100558.03
2022-11-29T20:33:21.327Z,100551.09
2022-11-29T20:34:53.455Z,100548.59
2022-11-29T20:36:44.281Z,100553.75
2022-11-29T20:38:19.520Z,100545.22
2022-11-29T20:39:53.779Z,100551.19
2022-11-29T20:41:27.747Z,100545.22
2022-11-29T20:42:59.839Z,100541.00
2022-11-29T20:44:38.570Z,100538.44
2022-11-29T20:46:10.780Z,100542.75